sensor_id;sensor_type;location;lat;lon;timestamp;P1;P2;P0
79038;PMS5003;68436;55.068;73.284;2023-07-31T00:00:44;43.67;34.33;11.00
79038;PMS5003;68436;55.068;73.284;2023-07-31T00:03:12;36.50;29.50;9.00
79038;PMS5003;68436;55.068;73.284;2023-07-31T00:05:45;42.50;31.00;13.50
79038;PMS5003;68436;55.068;73.284;2023-07-31T00:08:10;30.25;25.50;9.00
79038;PMS5003;68436;55.068;73.284;2023-07-31T00:10:44;35.33;29.33;15.00
79038;PMS5003;68436;55.068;73.284;2023-07-31T00:13:11;36.00;29.50;12.25
79038;PMS5003;68436;55.068;73.284;2023-07-31T00:15:44;40.00;31.33;12.00
79038;PMS5003;68436;55.068;73.284;2023-07-31T00:18:11;21.00;18.00;9.75
79038;PMS5003;68436;55.068;73.284;2023-07-31T00:20:44;43.67;34.33;15.00
79038;PMS5003;68436;55.068;73.284;2023-07-31T00:23:10;42.00;32.50;13.00
79038;PMS5003;68436;55.068;73.284;2023-07-31T00:25:44;33.33;25.33;12.00
79038;PMS5003;68436;55.068;73.284;2023-07-31T00:28:11;19.00;15.00;6.25
79038;PMS5003;68436;55.068;73.284;2023-07-31T00:30:44;48.00;37.00;16.00
79038;PMS5003;68436;55.068;73.284;2023-07-31T00:33:10;44.00;33.50;14.00
79038;PMS5003;68436;55.068;73.284;2023-07-31T00:35:44;42.00;34.33;19.00
79038;PMS5003;68436;55.068;73.284;2023-07-31T00:38:10;31.00;27.00;11.50
79038;PMS5003;68436;55.068;73.284;2023-07-31T00:40:44;33.33;27.33;12.00
79038;PMS5003;68436;55.068;73.284;2023-07-31T00:43:11;58.50;45.75;26.75
79038;PMS5003;68436;55.068;73.284;2023-07-31T00:45:44;34.67;28.00;12.00
79038;PMS5003;68436;55.068;73.284;2023-07-31T00:48:10;34.50;29.25;11.25
79038;PMS5003;68436;55.068;73.284;2023-07-31T00:50:45;54.50;38.50;17.50
79038;PMS5003;68436;55.068;73.284;2023-07-31T00:53:11;42.25;31.25;14.50
79038;PMS5003;68436;55.068;73.284;2023-07-31T00:55:44;38.00;30.67;14.00
79038;PMS5003;68436;55.068;73.284;2023-07-31T00:58:11;40.25;30.50;13.50
79038;PMS5003;68436;55.068;73.284;2023-07-31T01:00:44;46.50;31.00;12.00
79038;PMS5003;68436;55.068;73.284;2023-07-31T01:03:11;31.50;25.00;12.50
79038;PMS5003;68436;55.068;73.284;2023-07-31T01:06:20;51.00;39.00;16.50
79038;PMS5003;68436;55.068;73.284;2023-07-31T01:13:48;43.00;34.75;14.50
79038;PMS5003;68436;55.068;73.284;2023-07-31T01:16:14;51.00;37.00;18.00
79038;PMS5003;68436;55.068;73.284;2023-07-31T01:18:40;43.25;32.25;13.75
79038;PMS5003;68436;55.068;73.284;2023-07-31T01:21:12;43.50;35.00;17.75
79038;PMS5003;68436;55.068;73.284;2023-07-31T01:26:29;48.00;37.33;17.00
79038;PMS5003;68436;55.068;73.284;2023-07-31T01:29:07;35.50;27.00;10.00
79038;PMS5003;68436;55.068;73.284;2023-07-31T01:31:35;38.75;28.75;11.25
79038;PMS5003;68436;55.068;73.284;2023-07-31T01:34:02;31.75;26.00;11.50
79038;PMS5003;68436;55.068;73.284;2023-07-31T01:36:30;40.33;32.00;13.33
79038;PMS5003;68436;55.068;73.284;2023-07-31T01:38:59;57.00;37.75;18.75
79038;PMS5003;68436;55.068;73.284;2023-07-31T01:41:26;35.33;28.00;16.00
79038;PMS5003;68436;55.068;73.284;2023-07-31T01:43:53;27.50;23.25;15.50
79038;PMS5003;68436;55.068;73.284;2023-07-31T01:46:19;43.25;34.50;13.50
79038;PMS5003;68436;55.068;73.284;2023-07-31T01:48:45;41.50;29.25;12.50
79038;PMS5003;68436;55.068;73.284;2023-07-31T01:51:13;41.67;32.00;14.00
79038;PMS5003;68436;55.068;73.284;2023-07-31T01:53:39;53.50;38.50;18.00
79038;PMS5003;68436;55.068;73.284;2023-07-31T01:56:05;70.00;51.00;27.33
79038;PMS5003;68436;55.068;73.284;2023-07-31T01:58:34;55.50;37.00;17.00
79038;PMS5003;68436;55.068;73.284;2023-07-31T02:01:01;55.75;39.50;16.50
79038;PMS5003;68436;55.068;73.284;2023-07-31T02:03:27;47.75;36.00;15.00
79038;PMS5003;68436;55.068;73.284;2023-07-31T02:05:53;55.75;39.75;18.00
79038;PMS5003;68436;55.068;73.284;2023-07-31T02:08:19;69.75;47.50;22.00
79038;PMS5003;68436;55.068;73.284;2023-07-31T02:10:45;75.00;60.00;22.00
79038;PMS5003;68436;55.068;73.284;2023-07-31T02:13:11;52.00;39.25;20.00
79038;PMS5003;68436;55.068;73.284;2023-07-31T02:15:45;48.67;36.00;20.33
79038;PMS5003;68436;55.068;73.284;2023-07-31T02:18:11;61.50;44.00;20.25
79038;PMS5003;68436;55.068;73.284;2023-07-31T02:20:53;52.00;37.00;18.00
79038;PMS5003;68436;55.068;73.284;2023-07-31T02:23:19;41.00;31.50;14.00
79038;PMS5003;68436;55.068;73.284;2023-07-31T02:25:45;96.00;53.00;25.00
79038;PMS5003;68436;55.068;73.284;2023-07-31T02:28:11;47.50;37.00;17.50
79038;PMS5003;68436;55.068;73.284;2023-07-31T02:30:45;48.50;36.00;15.50
79038;PMS5003;68436;55.068;73.284;2023-07-31T02:33:14;42.50;32.00;12.00
79038;PMS5003;68436;55.068;73.284;2023-07-31T02:35:44;37.00;28.00;11.50
79038;PMS5003;68436;55.068;73.284;2023-07-31T02:38:16;20.50;18.25;10.25
79038;PMS5003;68436;55.068;73.284;2023-07-31T02:40:44;70.00;48.50;21.00
79038;PMS5003;68436;55.068;73.284;2023-07-31T02:43:10;37.00;30.00;11.75
79038;PMS5003;68436;55.068;73.284;2023-07-31T02:45:44;68.00;55.00;28.33
79038;PMS5003;68436;55.068;73.284;2023-07-31T02:48:10;86.00;62.00;23.25
79038;PMS5003;68436;55.068;73.284;2023-07-31T02:50:45;145.33;92.67;54.33
79038;PMS5003;68436;55.068;73.284;2023-07-31T02:53:11;285.00;191.25;88.25
79038;PMS5003;68436;55.068;73.284;2023-07-31T02:55:44;2819.67;2754.33;2712.67
79038;PMS5003;68436;55.068;73.284;2023-07-31T02:58:10;368.50;217.00;114.25
79038;PMS5003;68436;55.068;73.284;2023-07-31T03:00:44;255.67;159.67;60.00
79038;PMS5003;68436;55.068;73.284;2023-07-31T03:03:11;399.75;245.00;107.25
79038;PMS5003;68436;55.068;73.284;2023-07-31T03:05:44;213.00;133.67;57.33
79038;PMS5003;68436;55.068;73.284;2023-07-31T03:08:11;91.75;66.00;31.50
79038;PMS5003;68436;55.068;73.284;2023-07-31T03:10:44;63.00;47.00;24.00
79038;PMS5003;68436;55.068;73.284;2023-07-31T03:13:10;94.25;69.25;33.25
79038;PMS5003;68436;55.068;73.284;2023-07-31T03:15:44;200.00;134.67;74.67
79038;PMS5003;68436;55.068;73.284;2023-07-31T03:18:12;509.25;313.00;122.75
79038;PMS5003;68436;55.068;73.284;2023-07-31T03:20:44;247.50;160.00;114.00
79038;PMS5003;68436;55.068;73.284;2023-07-31T03:23:10;191.50;129.50;68.75
79038;PMS5003;68436;55.068;73.284;2023-07-31T03:26:01;392.33;244.00;89.00
79038;PMS5003;68436;55.068;73.284;2023-07-31T03:28:29;1305.25;1186.25;1086.50
79038;PMS5003;68436;55.068;73.284;2023-07-31T03:30:56;3035.50;3025.50;3017.75
79038;PMS5003;68436;55.068;73.284;2023-07-31T03:33:22;4000.00;4000.00;4000.00
79038;PMS5003;68436;55.068;73.284;2023-07-31T03:35:50;1313.75;1182.25;1109.25
79038;PMS5003;68436;55.068;73.284;2023-07-31T03:38:16;1443.75;1254.75;1153.00
79038;PMS5003;68436;55.068;73.284;2023-07-31T03:40:44;4000.00;4000.00;4000.00
79038;PMS5003;68436;55.068;73.284;2023-07-31T03:43:11;4000.00;4000.00;4000.00
79038;PMS5003;68436;55.068;73.284;2023-07-31T03:45:44;4000.00;4000.00;4000.00
79038;PMS5003;68436;55.068;73.284;2023-07-31T03:48:10;4000.00;4000.00;4000.00
79038;PMS5003;68436;55.068;73.284;2023-07-31T03:50:44;4000.00;4000.00;4000.00
79038;PMS5003;68436;55.068;73.284;2023-07-31T03:53:10;4000.00;4000.00;4000.00
79038;PMS5003;68436;55.068;73.284;2023-07-31T03:55:44;2219.00;2141.00;2083.00
79038;PMS5003;68436;55.068;73.284;2023-07-31T03:58:10;1386.75;1260.00;1102.50
79038;PMS5003;68436;55.068;73.284;2023-07-31T04:00:45;375.33;235.67;119.33
79038;PMS5003;68436;55.068;73.284;2023-07-31T04:03:11;1443.00;1265.25;1140.75
79038;PMS5003;68436;55.068;73.284;2023-07-31T04:05:44;325.33;254.33;66.33
79038;PMS5003;68436;55.068;73.284;2023-07-31T04:08:10;231.25;191.25;44.50
79038;PMS5003;68436;55.068;73.284;2023-07-31T04:10:44;68.67;58.67;19.33
79038;PMS5003;68436;55.068;73.284;2023-07-31T04:13:10;56.50;46.50;23.50
79038;PMS5003;68436;55.068;73.284;2023-07-31T04:15:48;33.33;28.33;18.33
79038;PMS5003;68436;55.068;73.284;2023-07-31T04:18:15;37.00;31.75;21.25
79038;PMS5003;68436;55.068;73.284;2023-07-31T04:20:44;42.00;34.00;22.00
79038;PMS5003;68436;55.068;73.284;2023-07-31T04:23:11;29.00;25.00;16.25
79038;PMS5003;68436;55.068;73.284;2023-07-31T04:25:44;31.67;26.00;17.67
79038;PMS5003;68436;55.068;73.284;2023-07-31T04:28:10;22.00;20.00;12.50
79038;PMS5003;68436;55.068;73.284;2023-07-31T04:30:44;39.00;32.00;21.00
79038;PMS5003;68436;55.068;73.284;2023-07-31T04:33:10;38.00;32.25;20.75
79038;PMS5003;68436;55.068;73.284;2023-07-31T04:35:51;28.00;23.67;15.67
79038;PMS5003;68436;55.068;73.284;2023-07-31T04:38:21;27.00;23.50;16.00
79038;PMS5003;68436;55.068;73.284;2023-07-31T04:40:47;30.33;26.00;16.33
79038;PMS5003;68436;55.068;73.284;2023-07-31T04:43:13;20.00;19.00;13.00
79038;PMS5003;68436;55.068;73.284;2023-07-31T04:45:45;23.00;20.00;11.00
79038;PMS5003;68436;55.068;73.284;2023-07-31T04:48:12;23.00;21.00;14.00
79038;PMS5003;68436;55.068;73.284;2023-07-31T04:50:44;26.00;23.00;14.00
79038;PMS5003;68436;55.068;73.284;2023-07-31T04:53:10;30.00;25.25;16.75
79038;PMS5003;68436;55.068;73.284;2023-07-31T04:55:44;24.00;19.00;12.00
79038;PMS5003;68436;55.068;73.284;2023-07-31T04:58:10;25.50;23.00;15.00
79038;PMS5003;68436;55.068;73.284;2023-07-31T05:00:44;25.33;22.33;15.00
79038;PMS5003;68436;55.068;73.284;2023-07-31T05:03:10;28.00;24.00;15.00
79038;PMS5003;68436;55.068;73.284;2023-07-31T05:05:44;23.00;21.00;14.00
79038;PMS5003;68436;55.068;73.284;2023-07-31T05:08:10;22.00;20.00;13.00
79038;PMS5003;68436;55.068;73.284;2023-07-31T05:10:44;26.00;23.00;14.00
79038;PMS5003;68436;55.068;73.284;2023-07-31T05:13:10;22.00;20.25;13.00
79038;PMS5003;68436;55.068;73.284;2023-07-31T05:15:45;23.00;20.67;14.00
79038;PMS5003;68436;55.068;73.284;2023-07-31T05:18:11;22.25;20.00;13.00
79038;PMS5003;68436;55.068;73.284;2023-07-31T05:20:44;22.00;20.00;13.00
79038;PMS5003;68436;55.068;73.284;2023-07-31T05:23:10;22.00;20.00;12.75
79038;PMS5003;68436;55.068;73.284;2023-07-31T05:25:44;37.67;32.33;21.00
79038;PMS5003;68436;55.068;73.284;2023-07-31T05:28:11;26.00;23.00;14.00
79038;PMS5003;68436;55.068;73.284;2023-07-31T05:30:44;46.00;38.33;24.67
79038;PMS5003;68436;55.068;73.284;2023-07-31T05:33:10;37.00;30.75;19.50
79038;PMS5003;68436;55.068;73.284;2023-07-31T05:35:44;22.00;20.00;14.00
79038;PMS5003;68436;55.068;73.284;2023-07-31T05:38:10;22.50;20.75;13.50
79038;PMS5003;68436;55.068;73.284;2023-07-31T05:40:44;21.00;19.00;12.00
79038;PMS5003;68436;55.068;73.284;2023-07-31T05:43:10;31.00;27.00;18.00
79038;PMS5003;68436;55.068;73.284;2023-07-31T05:45:44;46.67;36.33;20.67
79038;PMS5003;68436;55.068;73.284;2023-07-31T05:48:10;22.00;19.50;12.50
79038;PMS5003;68436;55.068;73.284;2023-07-31T05:50:44;18.33;16.67;10.67
79038;PMS5003;68436;55.068;73.284;2023-07-31T05:53:10;22.75;21.25;14.25
79038;PMS5003;68436;55.068;73.284;2023-07-31T05:55:44;33.33;28.00;18.67
79038;PMS5003;68436;55.068;73.284;2023-07-31T05:58:10;21.00;18.00;11.00
79038;PMS5003;68436;55.068;73.284;2023-07-31T06:00:44;74.67;55.33;32.33
79038;PMS5003;68436;55.068;73.284;2023-07-31T06:03:10;20.50;18.25;12.00
79038;PMS5003;68436;55.068;73.284;2023-07-31T06:05:44;21.00;18.00;12.00
79038;PMS5003;68436;55.068;73.284;2023-07-31T06:08:10;25.00;22.50;14.00
79038;PMS5003;68436;55.068;73.284;2023-07-31T06:10:44;25.67;23.67;15.67
79038;PMS5003;68436;55.068;73.284;2023-07-31T06:13:10;22.00;19.00;12.50
79038;PMS5003;68436;55.068;73.284;2023-07-31T06:15:44;26.00;22.00;13.00
79038;PMS5003;68436;55.068;73.284;2023-07-31T06:18:10;20.50;18.00;12.00
79038;PMS5003;68436;55.068;73.284;2023-07-31T06:20:44;24.00;22.00;14.00
79038;PMS5003;68436;55.068;73.284;2023-07-31T06:23:10;20.25;18.00;12.00
79038;PMS5003;68436;55.068;73.284;2023-07-31T06:25:44;20.00;18.00;11.00
79038;PMS5003;68436;55.068;73.284;2023-07-31T06:28:10;21.75;18.50;11.00
79038;PMS5003;68436;55.068;73.284;2023-07-31T06:30:44;30.67;23.67;15.33
79038;PMS5003;68436;55.068;73.284;2023-07-31T06:33:10;28.50;23.00;14.00
79038;PMS5003;68436;55.068;73.284;2023-07-31T06:35:44;29.33;24.00;15.00
79038;PMS5003;68436;55.068;73.284;2023-07-31T06:38:11;39.00;32.00;19.00
79038;PMS5003;68436;55.068;73.284;2023-07-31T06:40:44;23.00;20.67;14.00
79038;PMS5003;68436;55.068;73.284;2023-07-31T06:43:10;21.00;20.00;13.00
79038;PMS5003;68436;55.068;73.284;2023-07-31T06:45:44;35.67;28.00;18.00
79038;PMS5003;68436;55.068;73.284;2023-07-31T06:48:11;17.75;16.50;11.00
79038;PMS5003;68436;55.068;73.284;2023-07-31T06:50:44;25.00;23.00;16.00
79038;PMS5003;68436;55.068;73.284;2023-07-31T06:53:10;37.00;32.00;22.50
79038;PMS5003;68436;55.068;73.284;2023-07-31T06:55:44;24.00;22.00;16.00
79038;PMS5003;68436;55.068;73.284;2023-07-31T06:58:10;25.00;23.00;15.00
79038;PMS5003;68436;55.068;73.284;2023-07-31T07:00:44;37.00;30.33;21.00
79038;PMS5003;68436;55.068;73.284;2023-07-31T07:03:10;26.00;22.00;14.00
79038;PMS5003;68436;55.068;73.284;2023-07-31T07:05:44;22.33;19.33;14.00
79038;PMS5003;68436;55.068;73.284;2023-07-31T07:08:10;42.50;31.50;18.75
79038;PMS5003;68436;55.068;73.284;2023-07-31T07:10:44;25.00;22.00;13.00
79038;PMS5003;68436;55.068;73.284;2023-07-31T07:13:24;21.00;19.00;12.00
79038;PMS5003;68436;55.068;73.284;2023-07-31T07:15:50;23.50;20.50;14.00
79038;PMS5003;68436;55.068;73.284;2023-07-31T07:18:17;20.00;18.00;12.50
79038;PMS5003;68436;55.068;73.284;2023-07-31T07:20:51;43.00;36.50;24.00
79038;PMS5003;68436;55.068;73.284;2023-07-31T07:23:18;21.00;19.00;13.00
79038;PMS5003;68436;55.068;73.284;2023-07-31T07:25:45;17.50;16.00;11.00
79038;PMS5003;68436;55.068;73.284;2023-07-31T07:28:11;20.00;18.75;12.00
79038;PMS5003;68436;55.068;73.284;2023-07-31T07:30:44;26.00;23.00;15.00
79038;PMS5003;68436;55.068;73.284;2023-07-31T07:33:12;22.25;20.00;13.00
79038;PMS5003;68436;55.068;73.284;2023-07-31T07:35:44;23.00;21.00;14.00
79038;PMS5003;68436;55.068;73.284;2023-07-31T07:38:29;30.00;24.00;16.00
79038;PMS5003;68436;55.068;73.284;2023-07-31T07:40:55;19.00;17.67;12.00
79038;PMS5003;68436;55.068;73.284;2023-07-31T07:43:21;24.00;20.00;13.00
79038;PMS5003;68436;55.068;73.284;2023-07-31T07:45:47;51.00;38.00;23.00
79038;PMS5003;68436;55.068;73.284;2023-07-31T07:48:12;40.50;31.00;18.00
79038;PMS5003;68436;55.068;73.284;2023-07-31T07:50:44;38.00;29.00;17.00
79038;PMS5003;68436;55.068;73.284;2023-07-31T07:53:10;41.25;31.75;21.00
79038;PMS5003;68436;55.068;73.284;2023-07-31T07:55:44;32.67;27.00;18.00
79038;PMS5003;68436;55.068;73.284;2023-07-31T07:58:10;37.50;30.00;19.25
79038;PMS5003;68436;55.068;73.284;2023-07-31T08:00:51;42.00;33.00;21.00
79038;PMS5003;68436;55.068;73.284;2023-07-31T08:03:17;34.00;28.00;17.00
79038;PMS5003;68436;55.068;73.284;2023-07-31T08:05:44;23.00;21.00;14.00
79038;PMS5003;68436;55.068;73.284;2023-07-31T08:08:17;29.00;24.00;15.00
79038;PMS5003;68436;55.068;73.284;2023-07-31T08:10:44;36.00;30.00;18.00
79038;PMS5003;68436;55.068;73.284;2023-07-31T08:13:11;21.00;19.00;12.00
79038;PMS5003;68436;55.068;73.284;2023-07-31T08:15:44;22.00;19.00;12.00
79038;PMS5003;68436;55.068;73.284;2023-07-31T08:18:11;18.75;17.00;11.00
79038;PMS5003;68436;55.068;73.284;2023-07-31T08:20:44;27.00;24.00;15.00
79038;PMS5003;68436;55.068;73.284;2023-07-31T08:23:10;27.00;24.00;16.00
79038;PMS5003;68436;55.068;73.284;2023-07-31T08:25:44;24.00;21.00;14.00
79038;PMS5003;68436;55.068;73.284;2023-07-31T08:28:10;20.00;18.00;12.00
79038;PMS5003;68436;55.068;73.284;2023-07-31T08:30:44;19.00;17.00;11.00
79038;PMS5003;68436;55.068;73.284;2023-07-31T08:33:10;21.00;19.75;13.00
79038;PMS5003;68436;55.068;73.284;2023-07-31T08:35:44;22.00;20.00;13.00
79038;PMS5003;68436;55.068;73.284;2023-07-31T08:38:23;19.00;17.00;12.00
79038;PMS5003;68436;55.068;73.284;2023-07-31T08:40:51;22.00;20.00;13.75
79038;PMS5003;68436;55.068;73.284;2023-07-31T08:43:18;24.00;22.00;14.25
79038;PMS5003;68436;55.068;73.284;2023-07-31T08:46:03;25.50;22.25;15.50
79038;PMS5003;68436;55.068;73.284;2023-07-31T08:48:29;24.25;21.00;14.50
79038;PMS5003;68436;55.068;73.284;2023-07-31T08:50:56;18.25;17.00;11.00
79038;PMS5003;68436;55.068;73.284;2023-07-31T08:53:22;17.00;16.00;11.00
79038;PMS5003;68436;55.068;73.284;2023-07-31T08:55:49;19.00;17.25;12.50
79038;PMS5003;68436;55.068;73.284;2023-07-31T08:58:17;17.25;16.00;10.75
79038;PMS5003;68436;55.068;73.284;2023-07-31T09:00:45;17.00;15.00;10.00
79038;PMS5003;68436;55.068;73.284;2023-07-31T09:03:15;19.00;16.50;10.00
79038;PMS5003;68436;55.068;73.284;2023-07-31T09:05:45;18.00;16.00;10.00
79038;PMS5003;68436;55.068;73.284;2023-07-31T09:08:12;28.00;23.00;14.00
79038;PMS5003;68436;55.068;73.284;2023-07-31T09:10:53;82.50;51.75;28.50
79038;PMS5003;68436;55.068;73.284;2023-07-31T09:13:21;20.00;17.00;11.00
79038;PMS5003;68436;55.068;73.284;2023-07-31T09:15:47;20.00;18.00;12.00
79038;PMS5003;68436;55.068;73.284;2023-07-31T09:18:13;25.00;22.50;15.00
79038;PMS5003;68436;55.068;73.284;2023-07-31T09:20:44;20.00;17.00;10.50
79038;PMS5003;68436;55.068;73.284;2023-07-31T09:23:11;18.25;16.50;11.00
79038;PMS5003;68436;55.068;73.284;2023-07-31T09:25:45;18.00;17.00;13.00
79038;PMS5003;68436;55.068;73.284;2023-07-31T09:28:13;17.00;15.75;10.50
79038;PMS5003;68436;55.068;73.284;2023-07-31T09:33:10;18.00;17.00;11.00
79038;PMS5003;68436;55.068;73.284;2023-07-31T09:35:44;27.00;24.00;16.00
79038;PMS5003;68436;55.068;73.284;2023-07-31T09:38:12;22.00;20.00;15.00
79038;PMS5003;68436;55.068;73.284;2023-07-31T09:40:45;40.00;30.00;18.00
79038;PMS5003;68436;55.068;73.284;2023-07-31T09:43:13;28.00;24.75;16.00
79038;PMS5003;68436;55.068;73.284;2023-07-31T09:45:45;28.00;22.00;14.00
79038;PMS5003;68436;55.068;73.284;2023-07-31T09:48:15;23.00;21.00;14.00
79038;PMS5003;68436;55.068;73.284;2023-07-31T09:50:45;29.00;25.00;17.00
79038;PMS5003;68436;55.068;73.284;2023-07-31T09:53:12;22.00;20.00;13.50
79038;PMS5003;68436;55.068;73.284;2023-07-31T09:55:44;28.00;23.00;15.00
79038;PMS5003;68436;55.068;73.284;2023-07-31T09:58:12;19.00;18.00;12.00
79038;PMS5003;68436;55.068;73.284;2023-07-31T10:00:44;23.00;21.00;14.00
79038;PMS5003;68436;55.068;73.284;2023-07-31T10:03:11;25.25;21.00;13.75
79038;PMS5003;68436;55.068;73.284;2023-07-31T10:05:49;19.00;18.00;13.00
79038;PMS5003;68436;55.068;73.284;2023-07-31T10:08:17;21.25;19.25;13.00
79038;PMS5003;68436;55.068;73.284;2023-07-31T10:10:45;26.00;23.00;16.00
79038;PMS5003;68436;55.068;73.284;2023-07-31T10:13:11;27.00;25.00;17.00
79038;PMS5003;68436;55.068;73.284;2023-07-31T10:15:44;29.00;25.00;17.00
79038;PMS5003;68436;55.068;73.284;2023-07-31T10:18:11;22.00;20.00;13.00
79038;PMS5003;68436;55.068;73.284;2023-07-31T10:20:45;26.00;22.00;14.00
79038;PMS5003;68436;55.068;73.284;2023-07-31T10:23:12;22.00;19.50;13.00
79038;PMS5003;68436;55.068;73.284;2023-07-31T10:25:44;23.00;20.00;13.00
79038;PMS5003;68436;55.068;73.284;2023-07-31T10:28:12;25.00;22.00;15.00
79038;PMS5003;68436;55.068;73.284;2023-07-31T10:30:44;24.00;22.00;14.00
79038;PMS5003;68436;55.068;73.284;2023-07-31T10:33:10;71.50;59.00;34.75
79038;PMS5003;68436;55.068;73.284;2023-07-31T10:35:45;54.67;44.00;27.33
79038;PMS5003;68436;55.068;73.284;2023-07-31T10:38:12;34.00;28.50;19.00
79038;PMS5003;68436;55.068;73.284;2023-07-31T10:40:44;62.00;44.00;26.00
79038;PMS5003;68436;55.068;73.284;2023-07-31T10:43:23;33.00;28.00;18.00
79038;PMS5003;68436;55.068;73.284;2023-07-31T10:45:49;22.20;20.00;13.00
79038;PMS5003;68436;55.068;73.284;2023-07-31T10:48:16;25.75;22.50;15.00
79038;PMS5003;68436;55.068;73.284;2023-07-31T10:50:48;30.50;24.00;17.00
79038;PMS5003;68436;55.068;73.284;2023-07-31T10:53:30;23.50;20.50;14.00
79038;PMS5003;68436;55.068;73.284;2023-07-31T10:56:00;21.33;19.00;13.00
79038;PMS5003;68436;55.068;73.284;2023-07-31T10:58:26;24.00;21.00;14.00
79038;PMS5003;68436;55.068;73.284;2023-07-31T11:00:55;24.25;22.50;16.00
79038;PMS5003;68436;55.068;73.284;2023-07-31T11:03:24;26.50;24.00;16.00
79038;PMS5003;68436;55.068;73.284;2023-07-31T11:06:02;26.75;24.00;16.00
79038;PMS5003;68436;55.068;73.284;2023-07-31T11:08:33;25.75;23.00;16.00
79038;PMS5003;68436;55.068;73.284;2023-07-31T11:13:44;28.25;23.25;15.00
79038;PMS5003;68436;55.068;73.284;2023-07-31T11:16:11;29.00;25.00;16.00
79038;PMS5003;68436;55.068;73.284;2023-07-31T11:18:42;25.00;22.00;15.00
79038;PMS5003;68436;55.068;73.284;2023-07-31T11:21:17;30.00;25.00;17.00
79038;PMS5003;68436;55.068;73.284;2023-07-31T11:23:51;31.00;26.00;17.00
79038;PMS5003;68436;55.068;73.284;2023-07-31T11:26:17;31.00;26.00;17.33
79038;PMS5003;68436;55.068;73.284;2023-07-31T11:28:45;28.50;24.00;16.00
79038;PMS5003;68436;55.068;73.284;2023-07-31T11:31:11;30.00;25.33;16.00
79038;PMS5003;68436;55.068;73.284;2023-07-31T11:33:37;31.00;25.50;16.00
79038;PMS5003;68436;55.068;73.284;2023-07-31T11:36:03;26.00;23.00;15.00
79038;PMS5003;68436;55.068;73.284;2023-07-31T11:38:30;27.00;22.00;14.00
79038;PMS5003;68436;55.068;73.284;2023-07-31T11:40:57;20.00;19.00;13.75
79038;PMS5003;68436;55.068;73.284;2023-07-31T11:43:23;24.00;21.00;13.00
79038;PMS5003;68436;55.068;73.284;2023-07-31T11:45:51;25.00;21.00;14.00
79038;PMS5003;68436;55.068;73.284;2023-07-31T11:48:21;58.50;39.25;22.75
79038;PMS5003;68436;55.068;73.284;2023-07-31T11:50:49;23.33;20.00;14.00
79038;PMS5003;68436;55.068;73.284;2023-07-31T11:53:16;27.75;24.00;15.50
79038;PMS5003;68436;55.068;73.284;2023-07-31T11:55:44;25.00;22.00;16.00
79038;PMS5003;68436;55.068;73.284;2023-07-31T11:58:10;19.50;17.75;12.25
79038;PMS5003;68436;55.068;73.284;2023-07-31T12:00:44;17.33;15.00;10.00
79038;PMS5003;68436;55.068;73.284;2023-07-31T12:03:11;15.50;14.00;9.00
79038;PMS5003;68436;55.068;73.284;2023-07-31T12:05:44;16.00;15.00;10.00
79038;PMS5003;68436;55.068;73.284;2023-07-31T12:08:12;16.50;14.50;10.00
79038;PMS5003;68436;55.068;73.284;2023-07-31T12:10:44;15.00;14.00;10.00
79038;PMS5003;68436;55.068;73.284;2023-07-31T12:13:24;17.00;15.00;10.00
79038;PMS5003;68436;55.068;73.284;2023-07-31T12:15:55;17.00;15.00;10.00
79038;PMS5003;68436;55.068;73.284;2023-07-31T12:18:23;16.00;14.75;9.50
79038;PMS5003;68436;55.068;73.284;2023-07-31T12:20:54;21.40;17.80;10.60
79038;PMS5003;68436;55.068;73.284;2023-07-31T12:23:22;25.00;20.00;12.00
79038;PMS5003;68436;55.068;73.284;2023-07-31T12:26:01;26.00;20.00;11.00
79038;PMS5003;68436;55.068;73.284;2023-07-31T12:28:27;22.25;18.00;11.00
79038;PMS5003;68436;55.068;73.284;2023-07-31T12:30:56;18.00;15.00;10.00
79038;PMS5003;68436;55.068;73.284;2023-07-31T12:33:22;21.50;16.50;9.75
79038;PMS5003;68436;55.068;73.284;2023-07-31T12:35:48;19.00;15.75;9.75
79038;PMS5003;68436;55.068;73.284;2023-07-31T12:38:14;21.00;18.00;11.00
79038;PMS5003;68436;55.068;73.284;2023-07-31T12:40:44;25.00;22.00;14.50
79038;PMS5003;68436;55.068;73.284;2023-07-31T12:43:10;21.00;18.00;11.25
79038;PMS5003;68436;55.068;73.284;2023-07-31T12:45:44;14.33;13.33;9.00
79038;PMS5003;68436;55.068;73.284;2023-07-31T12:48:10;17.00;15.75;11.00
79038;PMS5003;68436;55.068;73.284;2023-07-31T12:50:44;16.00;15.00;10.00
79038;PMS5003;68436;55.068;73.284;2023-07-31T12:53:10;17.00;14.00;10.00
79038;PMS5003;68436;55.068;73.284;2023-07-31T12:55:44;16.00;14.00;9.00
79038;PMS5003;68436;55.068;73.284;2023-07-31T12:58:10;15.00;14.00;9.00
79038;PMS5003;68436;55.068;73.284;2023-07-31T13:00:44;15.67;14.00;10.00
79038;PMS5003;68436;55.068;73.284;2023-07-31T13:03:11;16.00;14.00;9.00
79038;PMS5003;68436;55.068;73.284;2023-07-31T13:05:44;17.00;15.00;10.00
79038;PMS5003;68436;55.068;73.284;2023-07-31T13:08:10;18.25;16.25;10.25
79038;PMS5003;68436;55.068;73.284;2023-07-31T13:10:44;20.00;19.00;12.00
79038;PMS5003;68436;55.068;73.284;2023-07-31T13:13:10;21.00;19.00;12.00
79038;PMS5003;68436;55.068;73.284;2023-07-31T13:15:44;20.00;17.00;12.00
79038;PMS5003;68436;55.068;73.284;2023-07-31T13:18:11;18.00;16.25;11.00
79038;PMS5003;68436;55.068;73.284;2023-07-31T13:20:44;19.00;17.00;11.00
79038;PMS5003;68436;55.068;73.284;2023-07-31T13:23:10;21.50;19.00;12.00
79038;PMS5003;68436;55.068;73.284;2023-07-31T13:25:44;22.00;20.00;13.00
79038;PMS5003;68436;55.068;73.284;2023-07-31T13:28:10;22.00;19.00;13.00
79038;PMS5003;68436;55.068;73.284;2023-07-31T13:30:44;17.00;15.67;11.00
79038;PMS5003;68436;55.068;73.284;2023-07-31T13:33:11;19.00;17.50;12.00
79038;PMS5003;68436;55.068;73.284;2023-07-31T13:35:44;20.00;18.00;13.00
79038;PMS5003;68436;55.068;73.284;2023-07-31T13:38:10;21.00;19.00;12.00
79038;PMS5003;68436;55.068;73.284;2023-07-31T13:40:44;18.00;17.00;12.00
79038;PMS5003;68436;55.068;73.284;2023-07-31T13:43:10;18.00;17.00;12.00
79038;PMS5003;68436;55.068;73.284;2023-07-31T13:45:44;24.00;22.00;15.00
79038;PMS5003;68436;55.068;73.284;2023-07-31T13:48:10;23.00;21.00;14.00
79038;PMS5003;68436;55.068;73.284;2023-07-31T13:50:44;21.00;19.00;12.00
79038;PMS5003;68436;55.068;73.284;2023-07-31T13:53:10;24.00;23.00;16.00
79038;PMS5003;68436;55.068;73.284;2023-07-31T13:55:44;22.00;20.00;13.00
79038;PMS5003;68436;55.068;73.284;2023-07-31T13:58:11;24.75;21.25;13.00